createdAt,value
2023-01-23T00:01:17.215Z,12.30
2023-01-23T00:03:44.553Z,12.07
2023-01-23T00:06:13.717Z,12.60
2023-01-23T00:08:41.598Z,12.43
2023-01-23T00:11:11.997Z,12.73
2023-01-23T00:13:39.482Z,12.30
2023-01-23T00:16:13.804Z,12.67
2023-01-23T00:18:41.042Z,12.43
2023-01-23T00:21:13.800Z,12.30
2023-01-23T00:23:49.169Z,12.20
2023-01-23T00:26:18.980Z,12.23
2023-01-23T00:28:46.760Z,12.40
2023-01-23T00:31:20.150Z,12.53
2023-01-23T00:33:57.363Z,12.40
2023-01-23T00:36:25.292Z,12.20
2023-01-23T00:38:54.624Z,12.43
2023-01-23T00:41:21.638Z,12.33
2023-01-23T00:43:49.038Z,12.27
2023-01-23T00:46:22.796Z,12.23
2023-01-23T00:48:50.031Z,12.23
2023-01-23T00:51:18.089Z,12.20
2023-01-23T00:53:45.223Z,12.10
2023-01-23T00:56:12.260Z,12.23
2023-01-23T00:58:40.634Z,12.17
2023-01-23T01:01:08.592Z,12.07
2023-01-23T01:03:36.288Z,12.47
2023-01-23T01:06:03.748Z,12.10
2023-01-23T01:08:30.855Z,11.90
2023-01-23T01:10:58.345Z,12.20
2023-01-23T01:13:25.901Z,12.17
2023-01-23T01:15:53.682Z,12.27
2023-01-23T01:18:22.502Z,12.43
2023-01-23T01:20:50.097Z,12.40
2023-01-23T01:23:17.307Z,11.83
2023-01-23T01:25:44.719Z,11.97
2023-01-23T01:28:11.934Z,12.30
2023-01-23T01:30:40.019Z,12.40
2023-01-23T01:33:07.450Z,12.43
2023-01-23T01:35:34.549Z,12.40
2023-01-23T01:38:01.582Z,12.13
2023-01-23T01:40:33.770Z,12.07
2023-01-23T01:43:06.743Z,12.77
2023-01-23T01:46:11.493Z,12.27
2023-01-23T01:48:59.469Z,12.40
2023-01-23T01:51:30.193Z,12.13
2023-01-23T01:54:25.115Z,12.60
2023-01-23T01:57:02.072Z,12.03
2023-01-23T01:59:33.572Z,12.43
2023-01-23T02:02:11.256Z,12.40
2023-01-23T02:04:43.056Z,12.07
2023-01-23T02:07:19.150Z,12.30
2023-01-23T02:09:47.525Z,12.60
2023-01-23T02:12:14.491Z,12.13
2023-01-23T02:14:42.222Z,12.50
2023-01-23T02:17:10.310Z,12.00
2023-01-23T02:19:45.632Z,12.30
2023-01-23T02:22:54.071Z,12.07
2023-01-23T02:25:42.997Z,12.17
2023-01-23T02:28:13.453Z,12.30
2023-01-23T02:30:42.569Z,12.13
2023-01-23T02:33:22.366Z,12.27
2023-01-23T02:35:51.410Z,12.10
2023-01-23T02:38:22.743Z,12.67
2023-01-23T02:40:52.673Z,11.77
2023-01-23T02:43:26.262Z,11.90
2023-01-23T02:45:58.455Z,12.00
2023-01-23T02:48:27.954Z,12.00
2023-01-23T02:50:55.118Z,12.13
2023-01-23T02:53:22.876Z,11.93
2023-01-23T02:55:52.179Z,11.97
2023-01-23T02:58:39.799Z,11.87
2023-01-23T03:01:06.826Z,11.63
2023-01-23T03:03:33.662Z,12.27
2023-01-23T03:06:03.514Z,12.00
2023-01-23T03:08:34.402Z,12.43
2023-01-23T03:11:01.909Z,12.13
2023-01-23T03:13:29.688Z,12.27
2023-01-23T03:16:00.616Z,12.43
2023-01-23T03:18:30.927Z,12.30
2023-01-23T03:21:02.854Z,12.00
2023-01-23T03:23:30.312Z,12.00
2023-01-23T03:26:00.261Z,12.27
2023-01-23T03:28:48.685Z,12.07
2023-01-23T03:31:16.318Z,12.00
2023-01-23T03:33:44.310Z,12.00
2023-01-23T03:36:13.849Z,12.10
2023-01-23T03:39:01.039Z,12.33
2023-01-23T03:41:28.142Z,12.00
2023-01-23T03:44:00.100Z,12.50
2023-01-23T03:46:27.389Z,12.30
2023-01-23T03:48:54.220Z,12.27
2023-01-23T03:51:21.241Z,12.23
2023-01-23T03:53:48.188Z,12.23
2023-01-23T03:56:15.899Z,12.17
2023-01-23T03:58:43.085Z,12.20
2023-01-23T04:01:13.352Z,12.33
2023-01-23T04:03:42.380Z,12.17
2023-01-23T04:06:10.320Z,12.30
2023-01-23T04:08:38.138Z,12.40
2023-01-23T04:11:07.240Z,12.33
2023-01-23T04:13:34.423Z,12.30
2023-01-23T04:16:01.880Z,12.50
2023-01-23T04:18:29.361Z,12.13
2023-01-23T04:20:56.615Z,12.17
2023-01-23T04:23:24.477Z,12.10
2023-01-23T04:25:53.297Z,12.37
2023-01-23T04:28:21.619Z,12.20
2023-01-23T04:30:51.574Z,12.53
2023-01-23T04:33:25.131Z,12.13
2023-01-23T04:36:03.212Z,12.27
2023-01-23T04:38:31.751Z,12.03
2023-01-23T04:41:19.353Z,12.37
2023-01-23T04:43:47.143Z,12.30
2023-01-23T04:46:14.129Z,12.30
2023-01-23T04:49:05.617Z,12.03
2023-01-23T04:51:33.982Z,12.07
2023-01-23T04:54:01.782Z,11.93
2023-01-23T04:56:28.876Z,12.17
2023-01-23T04:58:56.393Z,12.20
2023-01-23T05:01:24.000Z,12.07
2023-01-23T05:03:56.459Z,11.77
2023-01-23T05:06:23.832Z,12.53
2023-01-23T05:08:53.866Z,12.53
2023-01-23T05:11:26.853Z,12.10
2023-01-23T05:13:53.800Z,12.60
2023-01-23T05:16:21.437Z,12.83
2023-01-23T05:19:06.793Z,11.97
2023-01-23T05:21:34.705Z,12.37
2023-01-23T05:24:02.021Z,12.40
2023-01-23T05:26:29.208Z,12.63
2023-01-23T05:28:56.582Z,12.30
2023-01-23T05:31:25.026Z,12.37
2023-01-23T05:34:11.898Z,12.70
2023-01-23T05:36:40.349Z,12.43
2023-01-23T05:39:07.858Z,12.77
2023-01-23T05:41:34.799Z,12.50
2023-01-23T05:44:20.918Z,12.83
2023-01-23T05:46:52.389Z,13.00
2023-01-23T05:49:19.544Z,13.07
2023-01-23T05:51:46.491Z,12.57
2023-01-23T05:54:13.938Z,12.80
2023-01-23T05:56:44.708Z,13.17
2023-01-23T05:59:30.722Z,12.97
2023-01-23T06:02:17.703Z,13.50
2023-01-23T06:05:26.214Z,13.27
2023-01-23T06:08:01.575Z,13.33
2023-01-23T06:10:29.200Z,13.30
2023-01-23T06:12:56.554Z,13.13
2023-01-23T06:15:23.912Z,13.47
2023-01-23T06:17:53.838Z,13.70
2023-01-23T06:20:22.532Z,14.10
2023-01-23T06:22:49.763Z,14.03
2023-01-23T06:25:18.415Z,14.37
2023-01-23T06:27:45.250Z,13.97
2023-01-23T06:30:13.641Z,14.00
2023-01-23T06:32:42.664Z,13.87
2023-01-23T06:35:10.832Z,13.90
2023-01-23T06:37:41.138Z,13.37
2023-01-23T06:40:13.692Z,13.50
2023-01-23T06:42:46.129Z,13.47
2023-01-23T06:45:13.164Z,13.70
2023-01-23T06:47:40.355Z,13.90
2023-01-23T06:50:08.164Z,13.20
2023-01-23T06:52:37.737Z,13.53
2023-01-23T06:55:06.734Z,14.07
2023-01-23T06:57:34.807Z,13.50
2023-01-23T07:00:02.830Z,13.40
2023-01-23T07:02:30.715Z,13.10
2023-01-23T07:04:57.930Z,13.40
2023-01-23T07:07:26.270Z,13.40
2023-01-23T07:09:53.680Z,13.17
2023-01-23T07:12:24.932Z,13.50
2023-01-23T07:14:52.067Z,13.30
2023-01-23T07:17:24.237Z,13.70
2023-01-23T07:19:51.812Z,13.77
2023-01-23T07:22:22.840Z,13.53
2023-01-23T07:24:49.832Z,13.80
2023-01-23T07:27:16.830Z,13.30
2023-01-23T07:29:43.967Z,13.43
2023-01-23T07:32:11.288Z,13.53
2023-01-23T07:34:38.453Z,13.80
2023-01-23T07:37:05.518Z,13.60
2023-01-23T07:39:32.480Z,13.27
2023-01-23T07:41:59.426Z,13.40
2023-01-23T07:44:29.083Z,13.20
2023-01-23T07:46:57.277Z,13.43
2023-01-23T07:49:24.146Z,13.20
2023-01-23T07:51:51.126Z,13.03
2023-01-23T07:54:17.985Z,12.50
2023-01-23T07:56:44.913Z,12.33
2023-01-23T07:59:13.514Z,13.30
2023-01-23T08:01:40.668Z,13.03
2023-01-23T08:04:07.683Z,12.70
2023-01-23T08:06:34.601Z,12.43
2023-01-23T08:09:01.490Z,13.33
2023-01-23T08:11:28.521Z,13.10
2023-01-23T08:13:55.384Z,12.70
2023-01-23T08:16:22.558Z,12.60
2023-01-23T08:18:49.480Z,12.50
2023-01-23T08:21:16.642Z,12.93
2023-01-23T08:23:43.566Z,12.70
2023-01-23T08:26:12.853Z,12.43
2023-01-23T08:28:39.757Z,12.43
2023-01-23T08:31:08.828Z,12.60
2023-01-23T08:33:36.705Z,12.60
2023-01-23T08:36:05.072Z,12.73
2023-01-23T08:38:32.552Z,12.60
2023-01-23T08:41:01.695Z,12.90
2023-01-23T08:43:29.358Z,12.83
2023-01-23T08:45:58.709Z,12.90
2023-01-23T08:48:27.208Z,12.77
2023-01-23T08:51:03.274Z,12.60
2023-01-23T08:53:31.365Z,12.80
2023-01-23T08:56:03.275Z,13.03
2023-01-23T08:58:30.839Z,12.37
2023-01-23T09:00:58.174Z,12.40
2023-01-23T09:03:25.373Z,13.20
2023-01-23T09:05:52.657Z,12.73
2023-01-23T09:08:19.712Z,12.83
2023-01-23T09:10:46.596Z,13.13
2023-01-23T09:13:13.581Z,12.80
2023-01-23T09:15:40.832Z,12.90
2023-01-23T09:18:07.789Z,12.83
2023-01-23T09:20:34.728Z,12.80
2023-01-23T09:23:02.122Z,12.60
2023-01-23T09:25:31.296Z,13.30
2023-01-23T09:27:58.337Z,12.60
2023-01-23T09:30:25.421Z,12.83
2023-01-23T09:32:53.637Z,13.10
2023-01-23T09:35:23.365Z,12.70
2023-01-23T09:37:59.918Z,12.73
2023-01-23T09:40:45.675Z,13.10
2023-01-23T09:43:47.719Z,12.67
2023-01-23T09:46:32.846Z,12.70
2023-01-23T09:49:11.264Z,12.60
2023-01-23T09:51:38.207Z,12.70
2023-01-23T09:54:16.370Z,12.33
2023-01-23T09:56:46.434Z,12.70
2023-01-23T09:59:28.813Z,12.40
2023-01-23T10:01:56.462Z,12.77
2023-01-23T10:04:23.685Z,13.20
2023-01-23T10:07:12.200Z,12.87
2023-01-23T10:09:53.962Z,12.77
2023-01-23T10:12:53.607Z,12.87
2023-01-23T10:15:58.099Z,12.87
2023-01-23T10:18:28.317Z,12.73
2023-01-23T10:21:13.874Z,12.80
2023-01-23T10:23:41.080Z,12.73
2023-01-23T10:26:23.693Z,12.50
2023-01-23T10:28:57.916Z,12.50
2023-01-23T10:31:38.557Z,12.30
2023-01-23T10:34:18.630Z,12.60
2023-01-23T10:37:02.518Z,12.47
2023-01-23T10:40:00.425Z,12.60
2023-01-23T10:42:27.998Z,12.53
2023-01-23T10:44:54.948Z,12.63
2023-01-23T10:47:33.220Z,12.70
2023-01-23T10:50:01.619Z,12.33
2023-01-23T10:52:40.774Z,12.53
2023-01-23T10:55:33.830Z,12.70
2023-01-23T10:58:05.034Z,12.17
2023-01-23T11:00:36.775Z,11.90
2023-01-23T11:03:22.107Z,12.17
2023-01-23T11:05:54.267Z,12.23
2023-01-23T11:08:38.936Z,12.10
2023-01-23T11:11:14.933Z,12.60
2023-01-23T11:13:46.785Z,12.90
2023-01-23T11:16:20.665Z,12.07
2023-01-23T11:19:11.588Z,12.60
2023-01-23T11:21:51.923Z,12.50
2023-01-23T11:24:40.688Z,12.33
2023-01-23T11:27:29.979Z,12.90
2023-01-23T11:30:08.772Z,12.83
2023-01-23T11:32:44.682Z,12.53
2023-01-23T11:35:26.844Z,12.67
2023-01-23T11:37:56.068Z,12.40
2023-01-23T11:40:23.179Z,12.40
2023-01-23T11:42:50.245Z,12.90
2023-01-23T11:45:48.757Z,12.20
2023-01-23T11:48:34.512Z,12.77
2023-01-23T11:51:20.875Z,12.03
2023-01-23T11:53:56.682Z,12.00
2023-01-23T11:56:32.867Z,12.23
2023-01-23T11:58:59.736Z,12.30
2023-01-23T12:01:39.892Z,12.37
2023-01-23T12:04:31.177Z,12.50
2023-01-23T12:07:06.934Z,11.60
2023-01-23T12:10:02.537Z,12.27
2023-01-23T12:12:38.070Z,12.23
2023-01-23T12:15:42.091Z,11.90
2023-01-23T12:18:23.622Z,12.97
2023-01-23T12:21:09.881Z,12.50
2023-01-23T12:23:48.864Z,12.70
2023-01-23T12:26:24.731Z,12.37
2023-01-23T12:29:03.313Z,12.30
2023-01-23T12:31:30.447Z,12.60
2023-01-23T12:34:00.128Z,12.37
2023-01-23T12:37:11.715Z,12.67
2023-01-23T12:40:03.674Z,12.13
2023-01-23T12:42:49.486Z,12.00
2023-01-23T12:45:25.063Z,12.10
2023-01-23T12:48:13.788Z,12.23
2023-01-23T12:51:02.174Z,12.40
2023-01-23T12:53:34.421Z,12.40
2023-01-23T12:56:11.849Z,12.57
2023-01-23T12:58:43.015Z,12.23
2023-01-23T13:01:15.541Z,12.17
2023-01-23T13:04:23.904Z,12.47
2023-01-23T13:07:13.856Z,11.93
2023-01-23T13:09:58.679Z,11.90
2023-01-23T13:12:27.321Z,12.20
2023-01-23T13:15:19.025Z,12.30
2023-01-23T13:17:58.277Z,12.07
2023-01-23T13:20:43.987Z,12.53
2023-01-23T13:23:22.965Z,12.57
2023-01-23T13:25:50.527Z,12.07
2023-01-23T13:28:35.439Z,12.70
2023-01-23T13:31:37.211Z,12.57
2023-01-23T13:34:24.850Z,12.17
2023-01-23T13:36:53.372Z,11.90
2023-01-23T13:39:27.104Z,12.30
2023-01-23T13:42:12.753Z,12.00
2023-01-23T13:45:14.782Z,12.67
2023-01-23T14:25:47.299Z,11.83
2023-01-23T14:28:18.847Z,11.77
2023-01-23T14:30:58.321Z,11.73
2023-01-23T14:33:25.992Z,11.93
2023-01-23T14:35:56.151Z,12.00
2023-01-23T14:38:29.373Z,11.70
2023-01-23T14:40:57.538Z,11.70
2023-01-23T14:43:28.438Z,11.30
2023-01-23T14:46:22.369Z,12.17
2023-01-23T14:48:52.965Z,12.20
2023-01-23T14:51:25.638Z,12.00
2023-01-23T14:54:01.269Z,12.13
2023-01-23T14:56:37.134Z,11.63
2023-01-23T14:59:08.078Z,12.00
2023-01-23T15:01:35.999Z,12.10
2023-01-23T15:04:19.472Z,11.83
2023-01-23T15:06:54.972Z,12.87
2023-01-23T15:09:33.627Z,11.97
2023-01-23T15:12:08.355Z,12.30
2023-01-23T15:14:40.191Z,12.40
2023-01-23T15:17:33.331Z,11.87
2023-01-23T15:20:00.282Z,12.50
2023-01-23T15:22:29.758Z,12.10
2023-01-23T15:24:56.835Z,12.17
2023-01-23T15:27:35.118Z,12.13
2023-01-23T15:30:35.930Z,12.30
2023-01-23T15:33:07.710Z,12.33
2023-01-23T15:35:36.153Z,12.00
2023-01-23T15:38:09.499Z,12.50
2023-01-23T15:40:38.402Z,12.07
2023-01-23T15:43:14.767Z,12.50
2023-01-23T15:45:41.715Z,12.27
2023-01-23T15:48:08.679Z,12.43
2023-01-23T15:50:36.050Z,12.73
2023-01-23T15:53:03.205Z,12.17
2023-01-23T15:55:30.282Z,12.70
2023-01-23T15:57:57.196Z,12.90
2023-01-23T16:00:28.386Z,12.80
2023-01-23T16:02:57.879Z,12.50
2023-01-23T16:05:34.990Z,13.07
2023-01-23T16:08:03.509Z,12.60
2023-01-23T16:10:38.727Z,12.53
2023-01-23T16:13:07.617Z,13.03
2023-01-23T16:15:35.642Z,12.77
2023-01-23T16:18:04.711Z,13.37
2023-01-23T16:20:38.645Z,12.80
2023-01-23T16:23:15.160Z,12.97
2023-01-23T16:25:44.882Z,12.53
2023-01-23T16:28:20.626Z,13.13
2023-01-23T16:30:48.851Z,12.73
2023-01-23T16:33:16.572Z,13.20
2023-01-23T16:35:44.706Z,13.17
2023-01-23T16:38:25.960Z,12.83
2023-01-23T16:40:53.935Z,12.73
2023-01-23T16:43:22.266Z,12.50
2023-01-23T16:45:49.479Z,12.50
2023-01-23T16:48:26.262Z,12.67
2023-01-23T16:50:59.033Z,12.73
2023-01-23T16:53:29.917Z,12.87
2023-01-23T16:55:59.355Z,12.63
2023-01-23T16:58:29.486Z,12.97
2023-01-23T17:01:03.768Z,13.33
2023-01-23T17:03:34.128Z,12.53
2023-01-23T17:06:01.274Z,12.93
2023-01-23T17:08:28.262Z,12.63
2023-01-23T17:11:01.822Z,13.47
2023-01-23T17:13:33.574Z,13.10
2023-01-23T17:16:02.585Z,13.27
2023-01-23T17:18:32.842Z,13.00
2023-01-23T17:21:00.453Z,12.63
2023-01-23T17:23:27.420Z,12.67
2023-01-23T17:26:00.795Z,12.90
2023-01-23T17:28:28.952Z,12.97
2023-01-23T17:30:58.230Z,12.87
2023-01-23T17:33:30.365Z,12.50
2023-01-23T17:35:57.647Z,12.93
2023-01-23T17:38:26.970Z,13.10
2023-01-23T17:40:54.124Z,13.50
2023-01-23T17:43:21.523Z,12.83
2023-01-23T17:45:51.392Z,13.48
2023-01-23T17:48:33.823Z,12.80
2023-01-23T17:51:00.919Z,13.13
2023-01-23T17:53:28.047Z,12.87
2023-01-23T17:55:55.048Z,12.50
2023-01-23T17:58:22.292Z,12.93
2023-01-23T18:00:53.412Z,12.23
2023-01-23T18:03:22.198Z,12.70
2023-01-23T18:05:49.492Z,12.67
2023-01-23T18:08:22.119Z,12.80
2023-01-23T18:10:52.609Z,12.47
2023-01-23T18:13:43.533Z,12.30
2023-01-23T18:16:26.973Z,13.10
2023-01-23T18:19:19.775Z,12.87
2023-01-23T18:21:49.179Z,12.70
2023-01-23T18:24:29.284Z,12.77
2023-01-23T18:27:20.024Z,12.57
2023-01-23T18:30:11.679Z,11.67
2023-01-23T18:32:53.347Z,12.30
2023-01-23T18:35:59.051Z,12.10
2023-01-23T18:38:36.222Z,12.17
2023-01-23T18:41:21.063Z,12.00
2023-01-23T18:43:53.730Z,12.07
2023-01-23T18:46:24.042Z,12.43
2023-01-23T18:48:51.430Z,12.70
2023-01-23T18:51:27.009Z,12.63
2023-01-23T18:54:19.131Z,12.60
2023-01-23T18:57:30.907Z,12.93
2023-01-23T19:00:24.757Z,12.80
2023-01-23T19:02:55.939Z,12.60
2023-01-23T19:05:26.886Z,12.50
2023-01-23T19:07:54.556Z,12.53
2023-01-23T19:10:24.385Z,12.50
2023-01-23T19:13:13.207Z,12.87
2023-01-23T19:15:53.048Z,13.00
2023-01-23T19:18:48.866Z,12.70
2023-01-23T19:21:26.787Z,12.57
2023-01-23T19:24:07.353Z,12.67
2023-01-23T19:26:36.915Z,13.10
2023-01-23T19:29:20.593Z,12.60
2023-01-23T19:32:04.671Z,12.43
2023-01-23T19:34:33.215Z,12.90
2023-01-23T19:37:00.129Z,12.37
2023-01-23T19:39:27.050Z,12.90
2023-01-23T19:41:54.418Z,12.80
2023-01-23T19:44:25.204Z,12.53
2023-01-23T19:46:52.757Z,12.10
2023-01-23T19:49:19.591Z,12.47
2023-01-23T19:51:46.730Z,11.77
2023-01-23T19:54:15.239Z,11.40
2023-01-23T19:56:42.515Z,12.07
2023-01-23T19:59:10.036Z,12.13
2023-01-23T20:01:48.674Z,12.10
2023-01-23T20:04:20.709Z,12.50
2023-01-23T20:06:50.491Z,12.33
2023-01-23T20:09:17.968Z,12.67
2023-01-23T20:11:45.713Z,12.20
2023-01-23T20:14:13.229Z,12.43
2023-01-23T20:16:43.179Z,12.00
2023-01-23T20:19:14.989Z,12.27
2023-01-23T20:21:42.808Z,12.20
2023-01-23T20:24:09.843Z,12.87
2023-01-23T20:26:37.280Z,12.33
2023-01-23T20:29:05.116Z,12.00
2023-01-23T20:31:33.422Z,12.53
2023-01-23T20:34:00.518Z,12.57
2023-01-23T20:36:28.432Z,12.60
2023-01-23T20:38:56.799Z,12.50
2023-01-23T20:41:24.033Z,12.57
2023-01-23T20:43:50.966Z,13.00
2023-01-23T20:46:19.472Z,12.17
2023-01-23T20:48:47.147Z,12.77
2023-01-23T20:51:16.228Z,13.03
2023-01-23T20:53:44.127Z,12.97
2023-01-23T20:56:14.112Z,13.10
2023-01-23T20:59:02.682Z,13.07
2023-01-23T21:01:52.439Z,12.83
2023-01-23T21:04:20.120Z,12.67
2023-01-23T21:06:47.055Z,12.30
2023-01-23T21:09:14.258Z,12.03
2023-01-23T21:11:41.070Z,12.30
2023-01-23T21:14:08.350Z,12.60
2023-01-23T21:16:35.249Z,12.73
2023-01-23T21:19:02.706Z,12.37
2023-01-23T21:21:29.547Z,12.47
2023-01-23T21:23:56.577Z,12.60
2023-01-23T21:26:26.371Z,12.80
2023-01-23T21:28:54.761Z,12.60
2023-01-23T21:31:27.750Z,13.00
2023-01-23T21:33:54.906Z,12.97
2023-01-23T21:36:24.689Z,12.90
2023-01-23T21:38:52.519Z,12.93
2023-01-23T21:41:20.161Z,12.70
2023-01-23T21:43:47.323Z,12.60
2023-01-23T21:46:14.662Z,12.10
2023-01-23T21:48:41.709Z,11.80
2023-01-23T21:51:14.230Z,12.13
2023-01-23T21:53:43.300Z,12.20
2023-01-23T21:56:12.116Z,12.60
2023-01-23T21:58:39.318Z,12.30
2023-01-23T22:01:27.101Z,12.53
2023-01-23T22:03:54.170Z,12.83
2023-01-23T22:06:20.993Z,12.50
2023-01-23T22:08:47.901Z,12.67
2023-01-23T22:11:15.140Z,12.40
2023-01-23T22:13:42.170Z,12.53
2023-01-23T22:16:09.687Z,12.53
2023-01-23T22:18:36.667Z,12.87
2023-01-23T22:21:05.416Z,12.80
2023-01-23T22:23:32.985Z,12.10
2023-01-23T22:26:02.937Z,12.60
2023-01-23T22:28:30.020Z,13.07
2023-01-23T22:30:57.144Z,12.90
2023-01-23T22:33:30.062Z,12.60
2023-01-23T22:36:04.496Z,13.03
2023-01-23T22:38:31.651Z,12.20
2023-01-23T22:41:00.528Z,12.63
2023-01-23T22:43:27.729Z,12.60
2023-01-23T22:46:10.918Z,12.93
2023-01-23T22:48:38.913Z,12.60
2023-01-23T22:51:27.063Z,12.57
2023-01-23T22:53:55.811Z,12.97
2023-01-23T22:56:23.109Z,12.70
2023-01-23T22:58:51.900Z,13.10
2023-01-23T23:01:19.833Z,12.90
2023-01-23T23:03:46.941Z,12.90
2023-01-23T23:06:15.985Z,13.27
2023-01-23T23:08:47.118Z,12.70
2023-01-23T23:11:25.939Z,12.50
2023-01-23T23:13:53.769Z,13.40
2023-01-23T23:16:27.557Z,13.20
2023-01-23T23:18:56.078Z,13.33
2023-01-23T23:21:28.294Z,13.10
2023-01-23T23:23:58.078Z,13.07
2023-01-23T23:26:26.845Z,13.27
2023-01-23T23:28:54.567Z,13.40
2023-01-23T23:31:21.654Z,13.53
2023-01-23T23:33:49.984Z,13.00
2023-01-23T23:36:17.553Z,12.97
2023-01-23T23:38:44.371Z,13.17
2023-01-23T23:41:16.028Z,12.63
2023-01-23T23:43:44.035Z,13.00
2023-01-23T23:46:12.113Z,12.77
2023-01-23T23:48:39.241Z,12.73
2023-01-23T23:51:09.101Z,12.93
2023-01-23T23:53:36.657Z,12.60
2023-01-23T23:56:04.347Z,12.73
2023-01-23T23:58:31.777Z,12.90
